Accueil
METAR-TAF:

METAR-TAF

Aéroports :

Arnhem, Pays-Bas

latitude: 52-04N, longitude: 005-53E, altitude: 48 m

Observation

Le bulletin a été fait il y a 30 minutes, à 18:55 UTC
Vent 4 kt de nord/nord-ouest
Température 8°C
Humidité 87%
Pression 1026 hPa
Visibilité 10 km ou plus
Ciel couvert à une hauteur de 22000 ft

METAR: EHDL 191855Z AUTO 34004KT 9999 OVC220 08/06 Q1026 BLU

Heure: 21:25 (19:25 UTC)

Prévision

Le bulletin a été fait il y a 26 heures et 46 minutes, à 16:39 UTC
Prévision valable du 18 à 17 UTC au 19 à 05 UTC
Vent 5 kt de nord/nord-est
Visibilité 10 km ou plus
Quelques nuages à une hauteur de 3000 ft
Evoluant progressivement
du 19 à 03 UTC au 19 à 05 UTC
Visibilité: 4000 m
brume

TAF: EHDL 181639Z 1817/1905 03005KT 9999 FEW030 BECMG 1903/1905 4000 BR

Observations et prévisions météorologiques de plus de 4000 aéroports (messages METAR et TAF).

Les stations disponibles sont représentées par des disques jaunes et rouges sur la carte.

Passer la souris dessus pour voir le nom de la station.

Cliquer dessus pour voir les observations et prévisions météorologiques.

Pour changer de carte: cliquez sur les boutons verts avec une croix noire pour zoomer, sur le bouton vert avec un tiret pour effectuer un zoom arrière, ou sur les flèches vertes pour les cartes adjacentes.


METAR-TAF: